Hewins, Kansas
Current Conditions -  °F | °C
As of 11:55 PM on Saturday 22 Nov 2014 (Local Time) from KIDP Reporting Station
Overcast Overcast  
Wind Chill: 55°   Ceiling: 3400
Heat Index: 55°   Visibility: 10mi
Dew Point: 52°   Wind: 14mph
Humidity: 88%   Direction: 170°S
Pressure: 29.67"   Gusts: 18mph
Location:  37.1672°N, 96.399°W
Report Text: KIDP 230555Z AUTO 17012G16KT 10SM SCT012 SCT028 OVC034 13/11 A2967 RMK AO2
Loading
Personal Weather Stations






























Interactive Weather Map New forecast layout! Learn more

10-Day Weather Forecast

Advertisements
Track Severe Weather on mobile